Araruama, Brazil
Current Conditions -  °F | °C
As of 4:00 PM on Tuesday 21 Oct 2014 (Local Time) from SBES Reporting Station
Broken Clouds Broken Clouds  
Wind Chill: 72°   Ceiling: 7000
Heat Index: 72°   Visibility: 6mi
Dew Point: 59°   Wind: 10mph
Humidity: 64%   Direction: 180°S
Pressure: 30.09"   Gusts: NA
Location:  22.87°S, 42.36°W
Report Text: SBES 211800Z 18009KT 9999 SCT020 BKN070 22/15 Q1019
Loading
Personal Weather Stations






























Interactive Weather Map
Tropical Storm Tracking
New forecast layout! Learn more

10-Day Weather Forecast

Advertisements
Track Severe Weather on mobile